createdAt,value
2017-06-01T00:02:26.333Z,4.96
2017-06-01T00:04:55.677Z,3.32
2017-06-01T00:07:25.203Z,3.52
2017-06-01T00:09:54.422Z,4.06
2017-06-01T00:12:23.797Z,4.52
2017-06-01T00:14:53.323Z,3.64
2017-06-01T00:17:22.625Z,4.56
2017-06-01T00:19:51.927Z,3.52
2017-06-01T00:22:21.214Z,4.52
2017-06-01T00:24:50.542Z,4.22
2017-06-01T00:27:19.839Z,4.28
2017-06-01T00:29:49.106Z,3.94
2017-06-01T00:32:18.424Z,5.58
2017-06-01T00:34:47.773Z,4.76
2017-06-01T00:37:17.162Z,3.82
2017-06-01T00:39:46.774Z,4.30
2017-06-01T00:42:16.097Z,4.58
2017-06-01T00:44:45.599Z,4.20
2017-06-01T00:47:14.893Z,5.64
2017-06-01T00:49:44.137Z,3.78
2017-06-01T00:52:13.381Z,5.30
2017-06-01T00:54:42.626Z,4.08
2017-06-01T00:57:11.897Z,3.58
2017-06-01T00:59:41.161Z,4.52
2017-06-01T01:02:10.462Z,3.88
2017-06-01T01:04:40.378Z,4.38
2017-06-01T01:07:09.901Z,4.40
2017-06-01T01:09:39.113Z,4.68
2017-06-01T01:12:08.519Z,5.70
2017-06-01T01:14:37.709Z,4.56
2017-06-01T01:17:06.933Z,4.60
2017-06-01T01:19:36.618Z,4.50
2017-06-01T01:22:05.867Z,3.60
2017-06-01T01:24:35.129Z,5.68
2017-06-01T01:27:04.893Z,3.92
2017-06-01T01:29:34.311Z,3.96
2017-06-01T01:32:03.667Z,4.12
2017-06-01T01:34:33.465Z,3.10
2017-06-01T01:37:02.805Z,3.40
2017-06-01T01:39:32.162Z,3.50
2017-06-01T01:42:01.489Z,5.16
2017-06-01T01:44:30.845Z,4.68
2017-06-01T01:47:00.741Z,3.96
2017-06-01T01:49:30.449Z,5.08
2017-06-01T01:51:59.949Z,4.90
2017-06-01T01:54:29.327Z,4.48
2017-06-01T01:56:58.615Z,4.20
2017-06-01T01:59:28.294Z,4.40
2017-06-01T02:01:57.637Z,4.82
2017-06-01T02:04:26.938Z,5.02
2017-06-01T02:06:57.050Z,4.40
2017-06-01T02:09:26.505Z,4.10
2017-06-01T02:11:55.876Z,4.54
2017-06-01T02:14:25.217Z,4.10
2017-06-01T02:16:54.505Z,4.20
2017-06-01T02:19:23.836Z,4.40
2017-06-01T02:21:53.153Z,4.40
2017-06-01T02:24:22.451Z,4.68
2017-06-01T02:26:51.824Z,4.92
2017-06-01T02:29:21.598Z,4.10
2017-06-01T02:31:50.994Z,4.80
2017-06-01T02:34:20.539Z,5.14
2017-06-01T02:36:49.913Z,4.42
2017-06-01T02:39:19.362Z,4.54
2017-06-01T02:41:48.680Z,4.70
2017-06-01T02:44:19.203Z,4.30
2017-06-01T02:46:48.508Z,4.72
2017-06-01T02:49:18.418Z,4.46
2017-06-01T02:51:50.383Z,3.94
2017-06-01T02:54:20.066Z,4.80
2017-06-01T02:56:49.601Z,5.70
2017-06-01T02:59:18.977Z,5.14
2017-06-01T03:01:48.361Z,4.62
2017-06-01T03:04:17.638Z,4.88
2017-06-01T03:06:46.962Z,4.34
2017-06-01T03:09:16.515Z,4.58
2017-06-01T03:11:45.900Z,4.14
2017-06-01T03:14:15.236Z,4.90
2017-06-01T03:16:45.232Z,4.62
2017-06-01T03:19:14.950Z,4.98
2017-06-01T03:21:44.359Z,4.80
2017-06-01T03:24:13.685Z,6.28
2017-06-01T03:26:43.033Z,4.38
2017-06-01T03:29:12.405Z,5.38
2017-06-01T03:31:41.773Z,4.56
2017-06-01T03:34:11.222Z,4.42
2017-06-01T03:36:40.600Z,4.18
2017-06-01T03:39:10.168Z,4.30
2017-06-01T03:41:40.291Z,4.90
2017-06-01T03:44:09.842Z,3.96
2017-06-01T03:46:39.222Z,4.64
2017-06-01T03:49:08.801Z,4.40
2017-06-01T03:51:38.364Z,4.28
2017-06-01T03:54:08.013Z,4.16
2017-06-01T03:56:37.732Z,3.94
2017-06-01T03:59:07.678Z,4.50
2017-06-01T04:01:37.159Z,4.08
2017-06-01T04:04:06.473Z,4.92
2017-06-01T04:06:35.825Z,3.70
2017-06-01T04:09:05.385Z,3.80
2017-06-01T04:11:34.789Z,4.56
2017-06-01T04:14:04.261Z,3.60
2017-06-01T04:16:34.109Z,3.92
2017-06-01T04:19:03.418Z,3.68
2017-06-01T04:21:33.015Z,4.18
2017-06-01T04:24:02.525Z,4.56
2017-06-01T04:26:31.883Z,4.18
2017-06-01T04:29:01.116Z,4.90
2017-06-01T04:31:30.409Z,4.38
2017-06-01T04:33:59.973Z,3.64
2017-06-01T04:36:29.237Z,4.44
2017-06-01T04:38:59.213Z,3.54
2017-06-01T04:41:28.502Z,3.98
2017-06-01T04:43:57.713Z,4.44
2017-06-01T04:46:27.125Z,3.04
2017-06-01T04:48:56.321Z,3.84
2017-06-01T04:51:25.649Z,3.62
2017-06-01T04:53:55.536Z,3.74
2017-06-01T04:56:24.815Z,3.02
2017-06-01T04:58:54.010Z,3.28
2017-06-01T05:01:23.220Z,3.92
2017-06-01T05:03:52.431Z,3.10
2017-06-01T05:09:00.973Z,3.20
2017-06-01T05:11:30.178Z,3.08
2017-06-01T05:13:59.473Z,2.70
2017-06-01T05:16:29.528Z,2.88
2017-06-01T05:18:59.273Z,3.14
2017-06-01T05:21:28.739Z,2.46
2017-06-01T05:23:57.986Z,2.50
2017-06-01T05:26:27.164Z,2.26
2017-06-01T05:28:56.753Z,2.60
2017-06-01T05:31:25.989Z,3.14
2017-06-01T05:33:55.621Z,2.58
2017-06-01T05:36:24.862Z,2.90
2017-06-01T05:38:54.109Z,3.78
2017-06-01T05:41:23.450Z,2.86
2017-06-01T05:43:53.606Z,3.48
2017-06-01T05:46:23.227Z,4.08
2017-06-01T05:48:53.181Z,3.04
2017-06-01T05:51:22.421Z,3.44
2017-06-01T05:53:51.897Z,3.26
2017-06-01T05:56:21.250Z,2.86
2017-06-01T05:58:50.718Z,3.10
2017-06-01T06:01:19.911Z,2.66
2017-06-01T06:03:49.725Z,2.68
2017-06-01T06:06:18.965Z,2.80
2017-06-01T06:08:48.306Z,2.62
2017-06-01T06:11:17.557Z,2.80
2017-06-01T06:13:46.773Z,3.32
2017-06-01T06:16:16.429Z,3.58
2017-06-01T06:18:45.765Z,2.74
2017-06-01T06:21:14.985Z,2.88
2017-06-01T06:23:44.189Z,2.50
2017-06-01T06:26:13.849Z,3.10
2017-06-01T06:28:43.052Z,2.98
2017-06-01T06:31:12.326Z,2.50
2017-06-01T06:33:41.746Z,3.56
2017-06-01T06:36:11.148Z,3.20
2017-06-01T06:38:40.365Z,3.12
2017-06-01T06:41:09.613Z,3.18
2017-06-01T06:43:39.245Z,2.78
2017-06-01T06:46:08.431Z,2.32
2017-06-01T06:48:37.645Z,2.78
2017-06-01T06:51:07.497Z,2.52
2017-06-01T06:53:37.245Z,2.94
2017-06-01T06:56:06.454Z,2.50
2017-06-01T06:58:35.870Z,3.78
2017-06-01T07:01:05.159Z,2.94
2017-06-01T07:03:34.485Z,3.04
2017-06-01T07:06:03.706Z,2.80
2017-06-01T07:08:33.204Z,3.06
2017-06-01T07:11:02.382Z,3.08
2017-06-01T07:13:32.013Z,2.40
2017-06-01T07:16:01.323Z,2.44
2017-06-01T07:18:30.624Z,2.50
2017-06-01T07:20:59.906Z,2.52
2017-06-01T07:23:29.118Z,2.56
2017-06-01T07:25:58.668Z,2.52
2017-06-01T07:28:27.877Z,2.70
2017-06-01T07:30:57.243Z,2.20
2017-06-01T07:33:26.514Z,2.88
2017-06-01T07:35:55.727Z,3.02
2017-06-01T07:38:25.745Z,2.62
2017-06-01T07:40:55.245Z,1.78
2017-06-01T07:43:24.536Z,2.42
2017-06-01T07:45:53.939Z,2.32
2017-06-01T07:48:23.170Z,2.50
2017-06-01T07:50:52.399Z,2.84
2017-06-01T07:53:21.757Z,2.28
2017-06-01T07:55:52.511Z,2.58
2017-06-01T07:58:22.729Z,3.04
2017-06-01T08:00:52.232Z,2.30
2017-06-01T08:03:21.459Z,2.96
2017-06-01T08:05:50.656Z,2.52
2017-06-01T08:08:20.043Z,2.48
2017-06-01T08:10:49.526Z,2.88
2017-06-01T08:13:18.812Z,1.92
2017-06-01T08:15:48.015Z,2.38
2017-06-01T08:18:17.235Z,2.42
2017-06-01T08:20:46.589Z,2.52
2017-06-01T08:23:16.175Z,2.40
2017-06-01T08:25:45.512Z,2.94
2017-06-01T08:28:14.721Z,2.76
2017-06-01T08:30:43.925Z,2.98
2017-06-01T08:33:13.367Z,2.12
2017-06-01T08:35:42.668Z,2.20
2017-06-01T08:38:12.174Z,2.02
2017-06-01T08:40:41.883Z,3.14
2017-06-01T08:43:11.122Z,2.38
2017-06-01T08:45:40.689Z,2.42
2017-06-01T08:48:09.913Z,3.10
2017-06-01T08:50:39.130Z,2.02
2017-06-01T08:53:08.438Z,2.98
2017-06-01T08:55:37.900Z,2.40
2017-06-01T08:58:07.132Z,2.26
2017-06-01T09:00:37.321Z,2.24
2017-06-01T09:03:07.217Z,2.36
2017-06-01T09:05:36.450Z,1.96
2017-06-01T09:08:06.045Z,2.36
2017-06-01T09:10:35.548Z,2.94
2017-06-01T09:13:05.744Z,1.90
2017-06-01T09:15:35.163Z,2.32
2017-06-01T09:18:06.215Z,2.40
2017-06-01T09:20:35.454Z,1.98
2017-06-01T09:23:05.253Z,2.44
2017-06-01T09:25:34.837Z,2.34
2017-06-01T09:28:05.545Z,12.46
2017-06-01T09:30:34.855Z,2.58
2017-06-01T09:33:04.224Z,2.44
2017-06-01T09:35:34.295Z,3.24
2017-06-01T09:38:03.649Z,2.62
2017-06-01T09:40:32.854Z,2.40
2017-06-01T09:43:02.176Z,1.70
2017-06-01T09:45:31.382Z,2.30
2017-06-01T09:48:00.798Z,2.38
2017-06-01T09:50:30.033Z,2.08
2017-06-01T09:52:59.397Z,2.50
2017-06-01T09:55:28.725Z,2.24
2017-06-01T09:57:57.971Z,1.76
2017-06-01T10:00:27.712Z,1.88
2017-06-01T10:02:57.060Z,1.90
2017-06-01T10:05:26.361Z,2.46
2017-06-01T10:07:55.618Z,2.44
2017-06-01T10:10:24.969Z,2.24
2017-06-01T10:12:54.486Z,2.02
2017-06-01T10:15:23.766Z,2.60
2017-06-01T10:17:53.097Z,1.92
2017-06-01T10:20:22.506Z,2.16
2017-06-01T10:22:51.797Z,2.08
2017-06-01T10:25:21.357Z,1.88
2017-06-01T10:27:50.830Z,2.02
2017-06-01T10:30:20.152Z,2.64
2017-06-01T10:32:52.470Z,2.18
2017-06-01T10:35:21.669Z,1.42
2017-06-01T10:37:50.969Z,1.92
2017-06-01T10:40:20.227Z,1.96
2017-06-01T10:42:49.937Z,2.44
2017-06-01T10:45:19.155Z,2.18
2017-06-01T10:47:48.386Z,3.30
2017-06-01T10:50:17.679Z,1.74
2017-06-01T10:52:46.952Z,2.12
2017-06-01T10:55:16.409Z,1.84
2017-06-01T10:57:45.809Z,2.04
2017-06-01T11:00:15.075Z,1.88
2017-06-01T11:02:44.350Z,2.20
2017-06-01T11:05:13.650Z,2.98
2017-06-01T11:07:43.365Z,2.58
2017-06-01T11:10:12.604Z,2.12
2017-06-01T11:12:41.776Z,2.08
2017-06-01T11:15:11.259Z,1.92
2017-06-01T11:17:40.461Z,2.52
2017-06-01T11:20:09.864Z,2.68
2017-06-01T11:22:39.353Z,1.88
2017-06-01T11:25:09.301Z,2.28
2017-06-01T11:27:39.189Z,2.28
2017-06-01T11:30:08.891Z,2.24
2017-06-01T11:32:38.434Z,2.38
2017-06-01T11:35:07.681Z,2.62
2017-06-01T11:37:37.022Z,2.10
2017-06-01T11:40:06.378Z,2.64
2017-06-01T11:42:35.656Z,1.82
2017-06-01T11:45:06.150Z,2.44
2017-06-01T11:47:35.376Z,2.04
2017-06-01T11:50:04.937Z,2.20
2017-06-01T11:52:34.848Z,1.60
2017-06-01T11:55:04.770Z,2.06
2017-06-01T11:57:33.955Z,2.50
2017-06-01T12:00:03.228Z,2.42
2017-06-01T12:02:32.478Z,2.24
2017-06-01T12:05:01.794Z,2.24
2017-06-01T12:07:31.158Z,2.60
2017-06-01T12:10:01.408Z,2.72
2017-06-01T12:12:30.638Z,1.92
2017-06-01T12:15:03.425Z,1.56
2017-06-01T12:17:36.622Z,2.08
2017-06-01T12:20:05.893Z,1.88
2017-06-01T12:22:35.258Z,2.34
2017-06-01T12:25:04.577Z,2.04
2017-06-01T12:27:35.529Z,2.40
2017-06-01T12:30:08.202Z,2.40
2017-06-01T12:32:38.297Z,2.38
2017-06-01T12:35:07.516Z,2.08
2017-06-01T12:37:37.027Z,3.02
2017-06-01T12:40:06.248Z,2.58
2017-06-01T12:42:35.887Z,2.04
2017-06-01T12:45:05.822Z,2.32
2017-06-01T12:47:36.285Z,2.24
2017-06-01T12:50:07.589Z,2.08
2017-06-01T12:52:36.978Z,1.92
2017-06-01T12:55:06.400Z,2.98
2017-06-01T12:57:36.046Z,2.10
2017-06-01T13:00:31.387Z,1.78
2017-06-01T13:03:01.665Z,2.30
2017-06-01T13:05:31.039Z,2.32
2017-06-01T13:08:01.323Z,2.34
2017-06-01T13:10:31.021Z,1.96
2017-06-01T13:13:01.305Z,1.98
2017-06-01T13:15:36.408Z,2.16
2017-06-01T13:20:46.025Z,2.78
2017-06-01T13:23:15.995Z,2.40
2017-06-01T13:25:45.495Z,2.00
2017-06-01T13:28:14.779Z,1.94
2017-06-01T13:30:43.997Z,2.68
2017-06-01T13:33:13.203Z,2.12
2017-06-01T13:35:42.579Z,2.30
2017-06-01T13:38:11.974Z,2.72
2017-06-01T13:40:41.185Z,2.06
2017-06-01T13:43:10.898Z,2.46
2017-06-01T13:45:40.175Z,2.40
2017-06-01T13:48:09.455Z,1.74
2017-06-01T13:50:38.780Z,1.98
2017-06-01T13:53:07.970Z,1.40
2017-06-01T13:55:37.191Z,1.76
2017-06-01T13:58:06.397Z,1.90
2017-06-01T14:00:35.641Z,1.96
2017-06-01T14:03:04.894Z,1.92
2017-06-01T14:05:34.365Z,1.72
2017-06-01T14:08:04.405Z,1.60
2017-06-01T14:10:33.658Z,1.62
2017-06-01T14:13:02.881Z,1.80
2017-06-01T14:15:32.460Z,1.50
2017-06-01T14:18:01.663Z,1.96
2017-06-01T14:20:30.877Z,1.92
2017-06-01T14:23:00.737Z,2.12
2017-06-01T14:25:30.500Z,1.80
2017-06-01T14:28:00.465Z,1.70
2017-06-01T14:30:29.650Z,1.68
2017-06-01T14:32:58.842Z,1.94
2017-06-01T14:35:28.045Z,1.46
2017-06-01T14:37:57.257Z,1.44
2017-06-01T14:40:26.482Z,2.02
2017-06-01T14:42:55.693Z,1.76
2017-06-01T14:45:25.074Z,2.52
2017-06-01T14:47:54.768Z,2.32
2017-06-01T14:50:24.013Z,2.02
2017-06-01T14:52:53.213Z,1.96
2017-06-01T14:55:22.433Z,1.80
2017-06-01T14:57:51.676Z,1.72
2017-06-01T15:00:21.379Z,1.90
2017-06-01T15:02:51.704Z,1.88
2017-06-01T15:05:21.542Z,1.36
2017-06-01T15:07:50.737Z,1.26
2017-06-01T15:10:20.036Z,1.24
2017-06-01T15:12:50.230Z,1.58
2017-06-01T15:15:19.466Z,2.18
2017-06-01T15:17:48.647Z,1.50
2017-06-01T15:20:17.883Z,2.08
2017-06-01T15:22:47.150Z,1.76
2017-06-01T15:25:16.522Z,2.14
2017-06-01T15:27:45.828Z,1.32
2017-06-01T15:30:15.029Z,1.48
2017-06-01T15:32:44.289Z,1.24
2017-06-01T15:35:14.473Z,1.56
2017-06-01T15:37:43.752Z,1.08
2017-06-01T15:40:12.975Z,1.36
2017-06-01T15:42:42.253Z,1.18
2017-06-01T15:45:11.561Z,1.26
2017-06-01T15:47:40.777Z,1.36
2017-06-01T15:50:10.452Z,1.14
2017-06-01T15:52:39.726Z,1.02
2017-06-01T15:55:08.983Z,0.90
2017-06-01T15:57:38.765Z,1.20
2017-06-01T16:00:07.988Z,0.88
2017-06-01T16:02:37.758Z,0.90
2017-06-01T16:05:07.131Z,0.70
2017-06-01T16:07:36.558Z,0.82
2017-06-01T16:10:06.223Z,1.16
2017-06-01T16:12:35.430Z,1.12
2017-06-01T16:15:05.445Z,1.36
2017-06-01T16:17:34.661Z,1.12
2017-06-01T16:20:04.283Z,1.10
2017-06-01T16:22:34.057Z,0.94
2017-06-01T16:25:03.494Z,0.60
2017-06-01T16:27:33.070Z,0.86
2017-06-01T16:30:02.350Z,0.84
2017-06-01T16:32:32.092Z,1.16
2017-06-01T16:35:01.488Z,0.72
2017-06-01T16:37:31.075Z,1.12
2017-06-01T16:40:00.749Z,1.08
2017-06-01T16:42:30.048Z,1.12
2017-06-01T16:44:59.357Z,1.26
2017-06-01T16:47:29.099Z,0.90
2017-06-01T16:49:59.066Z,0.84
2017-06-01T16:52:28.538Z,1.24
2017-06-01T16:54:57.859Z,0.96
2017-06-01T16:57:27.358Z,1.00
2017-06-01T16:59:56.663Z,0.88
2017-06-01T17:02:26.355Z,1.32
2017-06-01T17:04:56.114Z,0.86
2017-06-01T17:07:25.366Z,1.08
2017-06-01T17:09:54.697Z,1.18
2017-06-01T17:12:23.975Z,0.86
2017-06-01T17:14:53.297Z,0.90
2017-06-01T17:17:22.497Z,1.14
2017-06-01T17:19:51.874Z,1.42
2017-06-01T17:22:21.395Z,1.64
2017-06-01T17:24:50.605Z,1.20
2017-06-01T17:27:20.247Z,1.06
2017-06-01T17:29:50.105Z,0.60
2017-06-01T17:32:19.305Z,0.96
2017-06-01T17:34:48.579Z,1.32
2017-06-01T17:37:17.801Z,0.68
2017-06-01T17:39:47.017Z,1.24
2017-06-01T17:42:16.257Z,1.20
2017-06-01T17:44:45.984Z,0.96
2017-06-01T17:47:15.245Z,1.28
2017-06-01T17:49:44.532Z,1.40
2017-06-01T17:52:15.521Z,1.42
2017-06-01T17:54:44.805Z,1.24
2017-06-01T17:57:14.629Z,1.38
2017-06-01T17:59:44.400Z,1.28
2017-06-01T18:02:13.886Z,1.20
2017-06-01T18:04:43.176Z,1.40
2017-06-01T18:07:12.505Z,1.68
2017-06-01T18:09:41.983Z,1.30
2017-06-01T18:12:11.326Z,2.26
2017-06-01T18:14:40.905Z,2.32
2017-06-01T18:17:10.329Z,1.44
2017-06-01T18:19:40.231Z,2.10
2017-06-01T18:22:09.581Z,1.70
2017-06-01T18:37:25.998Z,1.68
2017-06-01T18:39:55.326Z,1.56
2017-06-01T18:42:24.672Z,1.42
2017-06-01T18:44:54.385Z,2.10
2017-06-01T18:47:23.714Z,2.40
2017-06-01T18:49:53.037Z,17.92
2017-06-01T18:52:22.509Z,20.44
2017-06-01T18:54:51.739Z,14.24
2017-06-01T18:57:21.110Z,5.40
2017-06-01T18:59:50.537Z,3.58
2017-06-01T19:02:20.043Z,1.58
2017-06-01T19:04:49.571Z,1.72
2017-06-01T19:07:19.276Z,2.06
2017-06-01T19:09:48.791Z,2.04
2017-06-01T19:12:18.109Z,1.48
2017-06-01T19:14:47.579Z,2.94
2017-06-01T19:17:16.886Z,2.02
2017-06-01T19:19:46.218Z,2.62
2017-06-01T19:22:15.413Z,2.28
2017-06-01T19:24:44.717Z,2.52
2017-06-01T19:27:13.954Z,2.70
2017-06-01T19:29:43.395Z,1.82
2017-06-01T19:32:12.612Z,1.82
2017-06-01T19:34:42.190Z,1.20
2017-06-01T19:37:11.431Z,1.50
2017-06-01T19:39:40.829Z,1.68
2017-06-01T19:42:10.112Z,1.40
2017-06-01T19:44:39.401Z,1.60
2017-06-01T19:47:08.694Z,1.70
2017-06-01T19:49:38.035Z,1.40
2017-06-01T19:52:07.353Z,1.30
2017-06-01T19:54:37.034Z,2.58
2017-06-01T19:57:06.276Z,1.64
2017-06-01T19:59:35.477Z,1.52
2017-06-01T20:02:05.177Z,2.00
2017-06-01T20:04:34.459Z,2.18
2017-06-01T20:07:03.687Z,2.26
2017-06-01T20:09:34.905Z,1.86
2017-06-01T20:12:04.414Z,2.36
2017-06-01T20:14:33.724Z,1.82
2017-06-01T20:17:02.917Z,2.50
2017-06-01T20:19:32.289Z,2.36
2017-06-01T20:22:01.498Z,2.50
2017-06-01T20:24:31.326Z,2.42
2017-06-01T20:27:00.596Z,3.06
2017-06-01T20:29:29.890Z,2.16
2017-06-01T20:31:59.233Z,2.90
2017-06-01T20:34:28.594Z,2.42
2017-06-01T20:36:58.041Z,2.54
2017-06-01T20:39:27.246Z,2.58
2017-06-01T20:41:56.497Z,3.02
2017-06-01T20:44:26.153Z,2.68
2017-06-01T20:46:55.437Z,3.00
2017-06-01T20:49:24.678Z,2.70
2017-06-01T20:51:53.918Z,2.34
2017-06-01T20:54:23.245Z,3.16
2017-06-01T20:56:52.554Z,2.80
2017-06-01T20:59:21.889Z,3.54
2017-06-01T21:01:51.137Z,2.38
2017-06-01T21:04:20.538Z,4.08
2017-06-01T21:06:49.897Z,3.28
2017-06-01T21:09:19.157Z,2.88
2017-06-01T21:11:48.710Z,2.70
2017-06-01T21:14:18.587Z,2.90
2017-06-01T21:16:47.756Z,2.92
2017-06-01T21:19:16.981Z,2.78
2017-06-01T21:21:47.133Z,3.46
2017-06-01T21:24:16.866Z,3.58
2017-06-01T21:26:46.506Z,3.10
2017-06-01T21:29:16.034Z,3.86
2017-06-01T21:31:45.517Z,3.58
2017-06-01T21:34:14.842Z,3.86
2017-06-01T21:36:44.151Z,2.96
2017-06-01T21:39:13.393Z,3.06
2017-06-01T21:41:42.709Z,3.30
2017-06-01T21:44:11.917Z,3.76
2017-06-01T21:46:41.129Z,4.68
2017-06-01T21:49:10.655Z,3.56
2017-06-01T21:51:39.921Z,3.58
2017-06-01T21:54:09.406Z,3.90
2017-06-01T21:56:38.762Z,4.02
2017-06-01T21:59:07.977Z,3.80
2017-06-01T22:01:37.209Z,5.40
2017-06-01T22:04:06.450Z,3.72
2017-06-01T22:06:35.762Z,3.76
2017-06-01T22:09:05.136Z,3.82
2017-06-01T22:11:34.558Z,4.24
2017-06-01T22:14:03.774Z,4.00
2017-06-01T22:16:32.990Z,4.74
2017-06-01T22:19:03.612Z,5.30
2017-06-01T22:21:32.940Z,4.92
2017-06-01T22:24:02.101Z,4.64
2017-06-01T22:26:31.380Z,4.98
2017-06-01T22:29:00.692Z,6.88
2017-06-01T22:31:30.112Z,4.24
2017-06-01T22:33:59.273Z,4.30
2017-06-01T22:36:28.544Z,4.06
2017-06-01T22:38:57.732Z,4.40
2017-06-01T22:41:27.389Z,5.10
2017-06-01T22:43:56.590Z,5.52
2017-06-01T22:46:25.813Z,3.68
2017-06-01T22:48:54.984Z,4.86
2017-06-01T22:51:24.189Z,3.44
2017-06-01T22:53:53.500Z,4.68
2017-06-01T22:56:22.700Z,4.28
2017-06-01T22:58:51.891Z,4.88
2017-06-01T23:01:21.365Z,5.10
2017-06-01T23:03:50.636Z,5.70
2017-06-01T23:06:19.799Z,5.48
2017-06-01T23:08:48.981Z,4.58
2017-06-01T23:11:18.156Z,5.92
2017-06-01T23:13:47.328Z,5.70
2017-06-01T23:16:15.752Z,6.40
2017-06-01T23:18:45.362Z,5.34
2017-06-01T23:21:15.224Z,4.78
2017-06-01T23:23:44.399Z,5.46
2017-06-01T23:26:13.622Z,6.34
2017-06-01T23:28:43.099Z,5.02
2017-06-01T23:31:12.295Z,4.70
2017-06-01T23:33:41.486Z,5.38
2017-06-01T23:36:10.686Z,5.62
2017-06-01T23:38:40.317Z,6.28
2017-06-01T23:41:09.818Z,6.32
2017-06-01T23:43:39.125Z,4.50
2017-06-01T23:46:08.326Z,6.62
2017-06-01T23:48:37.517Z,4.98
2017-06-01T23:51:06.734Z,4.92
2017-06-01T23:53:36.138Z,4.74
2017-06-01T23:56:05.439Z,5.92
2017-06-01T23:58:34.778Z,5.62
